ICETYJ LEBL-LPPT
Flight info
| Callsign | ICETYJ |
|---|---|
| Flight time | N/A |
| Altitude | 39000 |
| Route | SENIA7Q SENIA DCT DORMI DCT CRETA DCT NEXAS DCT DISVU DCT ADUXO N975 PALIO DCT AKOKI DCT GOTOR DCT TLD DCT NATPA DCT MELON DCT CCS DCT ELVAR DCT UPULO UPULO2A |
| Aircraft | B38M/M-V/N |
Departure
| Time | 2026-05-05 10:33 |
|---|---|
| Airport | Josep Tarradellas Barcelona-El Prat Airport (LEBL) |
Arrival
| Time | N/A |
|---|---|
| Airport | Lisbon Humberto Delgado Airport (LPPT) |
| Time | Latitude | Longitude | Altitude | Speed | Heading |
|---|---|---|---|---|---|
| 2026-05-05 10:33 | 41.15344 | 1.91365 | 10071 ft | 268 kts | 249° |
| 2026-05-05 10:33 | 41.14706 | 1.88966 | 10611 ft | 284 kts | 249° |
| 2026-05-05 10:33 | 41.14038 | 1.86395 | 10956 ft | 304 kts | 249° |
| 2026-05-05 10:33 | 41.13340 | 1.83672 | 11467 ft | 318 kts | 249° |
| 2026-05-05 10:34 | 41.12630 | 1.80862 | 12233 ft | 322 kts | 249° |
| 2026-05-05 10:34 | 41.11919 | 1.78022 | 13059 ft | 327 kts | 249° |
| 2026-05-05 10:34 | 41.11200 | 1.75139 | 13894 ft | 330 kts | 249° |
| 2026-05-05 10:34 | 41.10487 | 1.72271 | 14719 ft | 332 kts | 250° |
| 2026-05-05 10:35 | 41.09761 | 1.69356 | 15615 ft | 332 kts | 250° |
| 2026-05-05 10:35 | 41.09036 | 1.66442 | 16502 ft | 334 kts | 250° |
| 2026-05-05 10:35 | 41.08305 | 1.63508 | 17345 ft | 335 kts | 250° |
| 2026-05-05 10:35 | 41.07570 | 1.60563 | 18183 ft | 336 kts | 250° |
| 2026-05-05 10:36 | 41.06832 | 1.57607 | 18895 ft | 338 kts | 250° |
| 2026-05-05 10:36 | 41.06090 | 1.54639 | 19571 ft | 340 kts | 250° |
| 2026-05-05 10:36 | 41.05372 | 1.51676 | 20266 ft | 342 kts | 250° |
| 2026-05-05 10:36 | 41.04668 | 1.48646 | 20961 ft | 343 kts | 250° |
| 2026-05-05 10:37 | 41.03959 | 1.45614 | 21594 ft | 346 kts | 250° |
| 2026-05-05 10:37 | 41.03390 | 1.42499 | 22228 ft | 352 kts | 261° |
| 2026-05-05 10:37 | 41.03191 | 1.39261 | 22896 ft | 353 kts | 259° |
| 2026-05-05 10:37 | 41.02911 | 1.36011 | 23470 ft | 356 kts | 259° |
| 2026-05-05 10:38 | 41.02612 | 1.32743 | 23986 ft | 358 kts | 259° |
| 2026-05-05 10:38 | 41.02298 | 1.29456 | 24476 ft | 361 kts | 258° |
| 2026-05-05 10:38 | 41.01980 | 1.26197 | 24955 ft | 363 kts | 258° |
| 2026-05-05 10:38 | 41.01649 | 1.22851 | 25438 ft | 365 kts | 258° |
| 2026-05-05 10:39 | 41.01315 | 1.19499 | 25906 ft | 368 kts | 258° |
| 2026-05-05 10:39 | 41.00977 | 1.16123 | 26374 ft | 370 kts | 258° |
| 2026-05-05 10:39 | 41.00642 | 1.12779 | 26837 ft | 372 kts | 258° |
| 2026-05-05 10:39 | 41.00297 | 1.09357 | 27278 ft | 375 kts | 258° |
| 2026-05-05 10:40 | 40.99950 | 1.05921 | 27714 ft | 378 kts | 258° |
| 2026-05-05 10:40 | 40.99600 | 1.02466 | 28147 ft | 380 kts | 258° |
| 2026-05-05 10:40 | 40.99245 | 0.98979 | 28562 ft | 383 kts | 258° |
| 2026-05-05 10:40 | 40.98887 | 0.95467 | 28977 ft | 385 kts | 258° |
| 2026-05-05 10:41 | 40.98526 | 0.91936 | 29387 ft | 387 kts | 258° |
| 2026-05-05 10:41 | 40.98166 | 0.88428 | 29781 ft | 390 kts | 259° |
| 2026-05-05 10:41 | 40.97798 | 0.84851 | 30052 ft | 393 kts | 259° |
| 2026-05-05 10:41 | 40.97426 | 0.81241 | 30404 ft | 394 kts | 259° |
| 2026-05-05 10:42 | 40.96680 | 0.74054 | 31223 ft | 396 kts | 258° |
| 2026-05-05 10:42 | 40.96303 | 0.70437 | 31678 ft | 395 kts | 259° |
| 2026-05-05 10:42 | 40.95927 | 0.66837 | 32110 ft | 394 kts | 258° |
| 2026-05-05 10:43 | 40.95555 | 0.63284 | 32493 ft | 395 kts | 258° |
| 2026-05-05 10:43 | 40.95177 | 0.59690 | 32933 ft | 394 kts | 258° |
| 2026-05-05 10:43 | 40.94797 | 0.56092 | 33323 ft | 395 kts | 258° |
| 2026-05-05 10:43 | 40.94415 | 0.52479 | 33733 ft | 395 kts | 258° |
| 2026-05-05 10:44 | 40.94034 | 0.48882 | 34148 ft | 394 kts | 258° |
| 2026-05-05 10:44 | 40.93650 | 0.45275 | 34447 ft | 395 kts | 258° |
| 2026-05-05 10:44 | 40.93266 | 0.41681 | 34799 ft | 395 kts | 258° |
| 2026-05-05 10:44 | 40.92885 | 0.38120 | 35137 ft | 395 kts | 258° |
| 2026-05-05 10:45 | 40.92498 | 0.34511 | 35457 ft | 396 kts | 259° |
| 2026-05-05 10:45 | 40.92108 | 0.30896 | 35752 ft | 397 kts | 259° |
| 2026-05-05 10:45 | 40.91717 | 0.27280 | 36058 ft | 397 kts | 259° |
| 2026-05-05 10:45 | 40.91324 | 0.23656 | 36315 ft | 398 kts | 259° |
| 2026-05-05 10:46 | 40.90934 | 0.20071 | 36573 ft | 399 kts | 259° |
| 2026-05-05 10:46 | 40.90538 | 0.16435 | 36865 ft | 399 kts | 259° |
| 2026-05-05 10:46 | 40.90140 | 0.12800 | 37179 ft | 398 kts | 259° |
| 2026-05-05 10:46 | 40.89742 | 0.09173 | 37447 ft | 399 kts | 259° |
| 2026-05-05 10:47 | 40.89343 | 0.05540 | 37703 ft | 400 kts | 259° |
| 2026-05-05 10:47 | 40.88940 | 0.01893 | 37964 ft | 400 kts | 259° |
| 2026-05-05 10:47 | 40.88543 | -0.01702 | 38245 ft | 400 kts | 260° |
| 2026-05-05 10:47 | 40.88137 | -0.05354 | 38457 ft | 402 kts | 260° |
| 2026-05-05 10:48 | 40.87730 | -0.09007 | 38661 ft | 403 kts | 260° |
| 2026-05-05 10:48 | 40.87321 | -0.12676 | 38829 ft | 403 kts | 260° |
| 2026-05-05 10:48 | 40.86910 | -0.16340 | 38946 ft | 404 kts | 260° |
| 2026-05-05 10:49 | 40.86083 | -0.23693 | 38951 ft | 403 kts | 260° |
| 2026-05-05 10:49 | 40.85254 | -0.31025 | 38955 ft | 403 kts | 260° |
| 2026-05-05 10:50 | 40.84420 | -0.38345 | 38967 ft | 403 kts | 259° |
| 2026-05-05 10:50 | 40.83581 | -0.45675 | 38957 ft | 403 kts | 259° |
| 2026-05-05 10:51 | 40.82742 | -0.52964 | 38957 ft | 403 kts | 259° |
| 2026-05-05 10:51 | 40.81894 | -0.60293 | 38962 ft | 403 kts | 259° |
| 2026-05-05 10:52 | 40.81046 | -0.67575 | 38953 ft | 403 kts | 259° |
| 2026-05-05 10:52 | 40.80186 | -0.74914 | 38961 ft | 403 kts | 259° |
| 2026-05-05 10:53 | 40.79330 | -0.82184 | 38971 ft | 402 kts | 260° |
| 2026-05-05 10:53 | 40.78467 | -0.89477 | 38970 ft | 402 kts | 259° |
| 2026-05-05 10:54 | 40.77597 | -0.96781 | 38971 ft | 402 kts | 259° |
| 2026-05-05 10:54 | 40.76722 | -1.04083 | 38972 ft | 402 kts | 259° |
| 2026-05-05 10:55 | 40.75848 | -1.11342 | 38982 ft | 402 kts | 259° |
| 2026-05-05 10:55 | 40.74965 | -1.18644 | 38987 ft | 402 kts | 260° |
| 2026-05-05 10:56 | 40.74054 | -1.25879 | 38986 ft | 402 kts | 255° |
| 2026-05-05 10:56 | 40.72184 | -1.32831 | 38967 ft | 402 kts | 250° |
| 2026-05-05 10:57 | 40.70259 | -1.39744 | 38981 ft | 402 kts | 250° |
| 2026-05-05 10:57 | 40.69944 | -1.40864 | 38978 ft | 402 kts | 250° |